Terminal Aerodrome Forecast
Issued by NWS Blacksburg, VA

Current Version | Previous Version | Graphics & Text | Print | Product List | Glossary On
Versions: 1 2 3 4 5 6 7 8 9 10 11 12 13 14 15 16
000
FTUS41 KRNK 182321
TAFBLF
TAF
KBLF 182321Z 1900/1924 VRB04KT P6SM VCTS BKN050CB
      TEMPO 1900/1902 3SM TSRA OVC035CB
     FM190600 VRB03KT 4SM BR SCT050
     FM191200 29005KT P6SM SCT050=

USA.gov is the U.S. government's official web portal to all federal, state and local government web resources and services.